Skip to main content.
 TIME   TEMPERATURE   WINDSPEED   DIRECTION   HUMIDITY   BAROMETER   RAINFALL 
9:25 13.0°C (55.4°F) 13.0 kmh (8.1 mph) NW 93% 1017.9hPa (30.06 inHg) 7.0mm (0.28 in.)
8:25 11.0°C (51.8 °F) 13.0 kmh (8.1 mph) NW 100% 1015.9hPa (30.00 inHg) 7.0mm (0.28 in.)
7:25 12.0°C (53.6 °F) 16.7 kmh (10.4 mph) N 93% 1015.9hPa (30.00 inHg) 7.0mm (0.28 in.)
6:25 13.0°C (55.4 °F) 22.2 kmh (13.8 mph) N 93% 1014.9hPa (29.97 inHg) 7.0mm (0.28 in.)
5:25 12.0°C (53.6 °F) 7.4 kmh (4.6 mph) NW 93% 1013.9hPa (29.94 inHg) 2.0mm (0.08 in.)
4:25 11.0°C (51.8 °F) 5.6 kmh (3.5 mph) W 100% 1014.9hPa (29.97 inHg) 2.0mm (0.08 in.)
3:25 12.0°C (53.6 °F) 18.5 kmh (11.5 mph) NW 93% 1014.9hPa (29.97 inHg) 2.0mm (0.08 in.)
2:25 12.0°C (53.6 °F) 9.3 kmh (5.8 mph) NW 100% 1015.9hPa (30.00 inHg) 2.0mm (0.08 in.)
1:25 12.0°C (53.6 °F) 18.5 kmh (11.5 mph) NW 93% 1015.9hPa (30.00 inHg) 2.0mm (0.08 in.)
0:25 12.0°C (53.6 °F) 20.4 kmh (12.7 mph) WNW 87% 1016.9hPa (30.03 inHg) 2.0mm (0.08 in.)
23:25 12.0°C (53.6 °F) 18.5 kmh (11.5 mph) WNW 93% 1016.9hPa (30.03 inHg) 2.0mm (0.08 in.)
22:25 11.0°C (51.8 °F) 11.1 kmh (6.9 mph) WNW 93% 1017.9hPa (30.06 inHg) 0.0mm (0.00 in.)
21:25 11.0°C (51.8 °F) 16.7 kmh (10.4 mph) WNW 93% 1017.9hPa (30.06 inHg) 0.0mm (0.00 in.)
20:25 12.0°C (53.6 °F) 16.7 kmh (10.4 mph) WNW 81% 1017.9hPa (30.06 inHg) 0.0mm (0.00 in.)
19:25 12.0°C (53.6 °F) 22.2 kmh (13.8 mph) WNW 76% 1017.9hPa (30.06 inHg) 0.0mm (0.00 in.)
18:25 12.0°C (53.6 °F) 22.2 kmh (13.8 mph) W 76% 1017.9hPa (30.06 inHg) 0.0mm (0.00 in.)
17:25 13.0°C (55.4 °F) 25.9 kmh (16.1 mph) WNW 66% 1016.9hPa (30.03 inHg) 0.0mm (0.00 in.)
16:25 13.0°C (55.4 °F) 27.8 kmh (17.3 mph) WNW 66% 1017.9hPa (30.06 inHg) 0.0mm (0.00 in.)
15:25 13.0°C (55.4 °F) 25.9 kmh (16.1 mph) WNW 62% 1017.9hPa (30.06 inHg) 0.0mm (0.00 in.)
14:25 14.0°C (57.2 °F) 31.5 kmh (19.6 mph) WNW 58% 1017.9hPa (30.06 inHg) 0.0mm (0.00 in.)
13:25 13.0°C (55.4 °F) 20.4 kmh (12.7 mph) WNW 66% 1019.0hPa (30.09 inHg) 0.0mm (0.00 in.)
12:25 14.0°C (57.2 °F) 20.4 kmh (12.7 mph) WNW 58% 1020.0hPa (30.12 inHg) 0.0mm (0.00 in.)
11:25 13.0°C (55.4 °F) 16.7 kmh (10.4 mph) NW 62% 1020.0hPa (30.12 inHg) 0.0mm (0.00 in.)
10:25 11.0°C (51.8 °F) 14.8 kmh (9.2 mph) N 71% 1020.0hPa (30.12 inHg) 0.0mm (0.00 in.)